Time,TemperatureF,DewpointF,PressureIn,WindDirection,WindDirectionDegrees,WindSpeedMPH,WindSpeedGustMPH,Humidity,HourlyPrecipIn,Conditions,Clouds,dailyrainin,SoftwareType,DateUTC
2013-01-03 17:03:00,38.2,26.7,29.87,WSW,254,1.0,1.0,63,0.00,,,0.00,Wunderground v.1.15,2013-01-03 23:03:00,
2013-01-03 17:07:00,37.9,26.4,29.87,West,262,1.0,3.0,63,0.00,,,0.00,Wunderground v.1.15,2013-01-03 23:07:00,
2013-01-03 17:12:00,37.5,26.4,29.87,WSW,237,1.0,2.0,64,0.00,,,0.00,Wunderground v.1.15,2013-01-03 23:12:00,
2013-01-03 17:18:00,37.2,26.5,29.87,West,269,0.0,2.0,65,0.00,,,0.00,Wunderground v.1.15,2013-01-03 23:18:00,
2013-01-03 17:22:00,36.8,26.5,29.87,WSW,257,0.0,2.0,66,0.00,,,0.00,Wunderground v.1.15,2013-01-03 23:22:00,
2013-01-03 17:27:00,36.5,26.6,29.87,SW,226,0.0,2.0,67,0.00,,,0.00,Wunderground v.1.15,2013-01-03 23:27:00,
2013-01-03 17:32:00,36.3,26.7,29.87,SW,229,0.0,2.0,68,0.00,,,0.00,Wunderground v.1.15,2013-01-03 23:32:00,
2013-01-03 17:37:00,36.2,26.6,29.88,NW,305,0.0,2.0,68,0.00,,,0.00,Wunderground v.1.15,2013-01-03 23:37:00,
2013-01-03 17:42:00,35.9,26.4,29.88,WSW,246,0.0,2.0,68,0.00,,,0.00,Wunderground v.1.15,2013-01-03 23:42:00,
2013-01-03 17:47:00,35.7,26.5,29.88,WSW,256,1.0,2.0,69,0.00,,,0.00,Wunderground v.1.15,2013-01-03 23:47:00,
2013-01-03 17:52:00,35.6,26.4,29.88,WSW,239,0.0,1.0,69,0.00,,,0.00,Wunderground v.1.15,2013-01-03 23:52:00,
2013-01-03 17:57:00,35.3,26.5,29.88,WSW,242,1.0,1.0,70,0.00,,,0.00,Wunderground v.1.15,2013-01-03 23:57:00,
2013-01-03 18:02:00,35.2,26.4,29.89,SW,222,0.0,1.0,70,0.00,,,0.00,Wunderground v.1.15,2013-01-04 00:02:00,
2013-01-03 18:07:00,35.0,26.2,29.88,West,268,0.0,1.0,70,0.00,,,0.00,Wunderground v.1.15,2013-01-04 00:07:00,
2013-01-03 18:12:00,34.9,26.4,29.89,West,276,1.0,2.0,71,0.00,,,0.00,Wunderground v.1.15,2013-01-04 00:12:00,
2013-01-03 18:17:00,34.8,26.4,29.89,West,260,1.0,2.0,71,0.00,,,0.00,Wunderground v.1.15,2013-01-04 00:17:00,
2013-01-03 18:22:00,34.8,26.4,29.89,WSW,250,0.0,2.0,71,0.00,,,0.00,Wunderground v.1.15,2013-01-04 00:22:00,
2013-01-03 18:27:00,34.7,26.3,29.89,West,270,1.0,2.0,71,0.00,,,0.00,Wunderground v.1.15,2013-01-04 00:27:00,
2013-01-03 18:32:00,34.6,26.2,29.89,West,264,1.0,1.0,71,0.00,,,0.00,Wunderground v.1.15,2013-01-04 00:32:00,
2013-01-03 18:37:00,34.4,26.3,29.89,West,266,0.0,1.0,72,0.00,,,0.00,Wunderground v.1.15,2013-01-04 00:37:00,
2013-01-03 18:42:00,34.1,26.0,29.89,West,265,1.0,1.0,72,0.00,,,0.00,Wunderground v.1.15,2013-01-04 00:42:00,
2013-01-03 18:47:00,33.9,26.2,29.89,WSW,246,1.0,1.0,73,0.00,,,0.00,Wunderground v.1.15,2013-01-04 00:47:00,
2013-01-03 18:52:00,33.7,25.6,29.89,West,266,1.0,2.0,72,0.00,,,0.00,Wunderground v.1.15,2013-01-04 00:52:00,
2013-01-03 18:57:00,33.5,25.8,29.89,West,267,1.0,2.0,73,0.00,,,0.00,Wunderground v.1.15,2013-01-04 00:57:00,
2013-01-03 19:02:00,33.3,25.9,29.90,West,276,1.0,2.0,74,0.00,,,0.00,Wunderground v.1.15,2013-01-04 01:02:00,
2013-01-03 19:07:00,33.1,25.7,29.90,WSW,250,1.0,2.0,74,0.00,,,0.00,Wunderground v.1.15,2013-01-04 01:07:00,
2013-01-03 19:12:00,33.0,25.6,29.90,WSW,243,1.0,1.0,74,0.00,,,0.00,Wunderground v.1.15,2013-01-04 01:12:00,
2013-01-03 19:17:00,33.0,25.6,29.90,West,265,1.0,2.0,74,0.00,,,0.00,Wunderground v.1.15,2013-01-04 01:17:00,
2013-01-03 19:22:00,32.8,25.7,29.90,West,264,0.0,1.0,75,0.00,,,0.00,Wunderground v.1.15,2013-01-04 01:22:00,
2013-01-03 19:27:00,32.7,25.6,29.90,SW,225,0.0,1.0,75,0.00,,,0.00,Wunderground v.1.15,2013-01-04 01:27:00,
2013-01-03 19:32:00,32.6,25.6,29.90,SW,225,0.0,1.0,75,0.00,,,0.00,Wunderground v.1.15,2013-01-04 01:32:00,
2013-01-03 19:37:00,32.6,25.6,29.90,WSW,257,1.0,1.0,75,0.00,,,0.00,Wunderground v.1.15,2013-01-04 01:37:00,
2013-01-03 19:42:00,32.5,25.5,29.90,WSW,242,0.0,1.0,75,0.00,,,0.00,Wunderground v.1.15,2013-01-04 01:42:00,
2013-01-03 19:47:00,32.3,25.3,29.90,WSW,253,0.0,2.0,75,0.00,,,0.00,Wunderground v.1.15,2013-01-04 01:47:00,
2013-01-03 19:52:00,32.3,25.6,29.90,West,273,1.0,1.0,76,0.00,,,0.00,Wunderground v.1.15,2013-01-04 01:52:00,
2013-01-03 19:57:00,32.2,25.5,29.91,West,263,0.0,1.0,76,0.00,,,0.00,Wunderground v.1.15,2013-01-04 01:57:00,
2013-01-03 20:02:00,32.0,25.6,29.91,West,263,0.0,1.0,77,0.00,,,0.00,Wunderground v.1.15,2013-01-04 02:02:00,
2013-01-03 20:07:00,31.7,25.3,29.91,West,263,0.0,1.0,77,0.00,,,0.00,Wunderground v.1.15,2013-01-04 02:07:00,
2013-01-03 20:12:00,31.3,25.2,29.91,West,263,0.0,1.0,78,0.00,,,0.00,Wunderground v.1.15,2013-01-04 02:12:00,
2013-01-03 20:17:00,31.2,25.4,29.92,West,263,0.0,1.0,79,0.00,,,0.00,Wunderground v.1.15,2013-01-04 02:17:00,
2013-01-03 20:22:00,31.0,25.2,29.92,West,263,0.0,0.0,79,0.00,,,0.00,Wunderground v.1.15,2013-01-04 02:22:00,
2013-01-03 20:27:00,30.9,25.5,29.92,West,263,0.0,0.0,80,0.00,,,0.00,Wunderground v.1.15,2013-01-04 02:27:00,
2013-01-03 20:32:00,30.5,24.8,29.92,West,263,0.0,0.0,79,0.00,,,0.00,Wunderground v.1.15,2013-01-04 02:32:00,
2013-01-03 20:37:00,30.2,25.1,29.92,ENE,69,1.0,1.0,81,0.00,,,0.00,Wunderground v.1.15,2013-01-04 02:37:00,
2013-01-03 20:42:00,29.7,24.6,29.92,East,87,1.0,2.0,81,0.00,,,0.00,Wunderground v.1.15,2013-01-04 02:42:00,
2013-01-03 20:47:00,30.1,25.3,29.92,East,87,1.0,2.0,82,0.00,,,0.00,Wunderground v.1.15,2013-01-04 02:47:00,
2013-01-03 20:52:00,30.4,25.3,29.92,East,87,0.0,1.0,81,0.00,,,0.00,Wunderground v.1.15,2013-01-04 02:52:00,
2013-01-03 20:57:00,30.1,24.7,29.92,East,88,0.0,1.0,80,0.00,,,0.00,Wunderground v.1.15,2013-01-04 02:57:00,
2013-01-03 21:02:00,29.6,24.5,29.92,East,88,0.0,1.0,81,0.00,,,0.00,Wunderground v.1.15,2013-01-04 03:02:00,
2013-01-03 21:07:00,29.1,24.3,29.93,East,89,0.0,1.0,82,0.00,,,0.00,Wunderground v.1.15,2013-01-04 03:07:00,
2013-01-03 21:12:00,29.4,25.2,29.92,East,90,0.0,1.0,84,0.00,,,0.00,Wunderground v.1.15,2013-01-04 03:12:00,
2013-01-03 21:17:00,29.3,24.8,29.92,East,91,0.0,1.0,83,0.00,,,0.00,Wunderground v.1.15,2013-01-04 03:17:00,
2013-01-03 21:22:00,29.0,24.5,29.93,East,91,0.0,0.0,83,0.00,,,0.00,Wunderground v.1.15,2013-01-04 03:22:00,
2013-01-03 21:27:00,28.9,25.0,29.93,East,90,0.0,1.0,85,0.00,,,0.00,Wunderground v.1.15,2013-01-04 03:27:00,
2013-01-03 21:32:00,29.0,24.8,29.93,East,91,0.0,0.0,84,0.00,,,0.00,Wunderground v.1.15,2013-01-04 03:32:00,
2013-01-03 21:37:00,28.7,24.5,29.93,East,90,0.0,0.0,84,0.00,,,0.00,Wunderground v.1.15,2013-01-04 03:37:00,
2013-01-03 21:42:00,28.6,24.4,29.93,East,91,0.0,0.0,84,0.00,,,0.00,Wunderground v.1.15,2013-01-04 03:42:00,
2013-01-03 21:47:00,28.2,24.3,29.93,East,91,0.0,0.0,85,0.00,,,0.00,Wunderground v.1.15,2013-01-04 03:47:00,
2013-01-03 21:52:00,27.6,23.7,29.93,East,91,0.0,0.0,85,0.00,,,0.00,Wunderground v.1.15,2013-01-04 03:52:00,
2013-01-03 21:57:00,27.1,23.5,29.93,East,91,0.0,1.0,86,0.00,,,0.00,Wunderground v.1.15,2013-01-04 03:57:00,
2013-01-03 22:02:00,26.8,23.4,29.93,East,90,0.0,0.0,87,0.00,,,0.00,Wunderground v.1.15,2013-01-04 04:02:00,
2013-01-03 22:07:00,26.6,23.5,29.94,East,91,0.0,0.0,88,0.00,,,0.00,Wunderground v.1.15,2013-01-04 04:07:00,
2013-01-03 22:12:00,26.4,23.3,29.93,East,91,0.0,0.0,88,0.00,,,0.00,Wunderground v.1.15,2013-01-04 04:12:00,
2013-01-03 22:17:00,26.1,23.0,29.93,East,90,0.0,0.0,88,0.00,,,0.00,Wunderground v.1.15,2013-01-04 04:17:00,
2013-01-03 22:22:00,25.8,22.7,29.93,East,91,0.0,0.0,88,0.00,,,0.00,Wunderground v.1.15,2013-01-04 04:22:00,
2013-01-03 22:27:00,25.7,22.9,29.93,East,91,0.0,0.0,89,0.00,,,0.00,Wunderground v.1.15,2013-01-04 04:27:00,
2013-01-03 22:32:00,25.6,22.8,29.93,East,91,0.0,0.0,89,0.00,,,0.00,Wunderground v.1.15,2013-01-04 04:32:00,
2013-01-03 22:37:00,25.6,22.8,29.93,East,91,0.0,0.0,89,0.00,,,0.00,Wunderground v.1.15,2013-01-04 04:37:00,
2013-01-03 22:42:00,25.4,22.9,29.93,East,91,0.0,0.0,90,0.00,,,0.00,Wunderground v.1.15,2013-01-04 04:42:00,
2013-01-03 22:47:00,25.3,22.8,29.93,East,91,0.0,0.0,90,0.00,,,0.00,Wunderground v.1.15,2013-01-04 04:47:00,
2013-01-03 22:52:00,25.1,22.6,29.93,East,91,0.0,0.0,90,0.00,,,0.00,Wunderground v.1.15,2013-01-04 04:52:00,
2013-01-03 22:57:00,25.3,23.0,29.93,East,91,0.0,0.0,91,0.00,,,0.00,Wunderground v.1.15,2013-01-04 04:57:00,
2013-01-03 23:00:00,25.3,23.0,29.93,East,91,0.0,0.0,91,0.00,,,0.00,Wunderground v.1.15,2013-01-04 05:00:00,
2013-01-03 23:01:00,25.4,23.1,29.93,East,91,0.0,0.0,91,0.00,,,0.00,Wunderground v.1.15,2013-01-04 05:01:00,
2013-01-03 23:06:00,25.3,23.0,29.93,East,90,0.0,0.0,91,0.00,,,0.00,Wunderground v.1.15,2013-01-04 05:06:00,
2013-01-03 23:11:00,25.1,22.8,29.93,East,90,0.0,0.0,91,0.00,,,0.00,Wunderground v.1.15,2013-01-04 05:11:00,
2013-01-03 23:16:00,25.0,22.7,29.93,East,91,0.0,0.0,91,0.00,,,0.00,Wunderground v.1.15,2013-01-04 05:16:00,
2013-01-03 23:21:00,25.2,23.2,29.93,East,88,0.0,1.0,92,0.00,,,0.00,Wunderground v.1.15,2013-01-04 05:21:00,
2013-01-03 23:26:00,25.5,23.2,29.93,East,91,0.0,1.0,91,0.00,,,0.00,Wunderground v.1.15,2013-01-04 05:26:00,
2013-01-03 23:31:00,25.6,23.3,29.93,East,91,0.0,0.0,91,0.00,,,0.00,Wunderground v.1.15,2013-01-04 05:31:00,
2013-01-03 23:36:00,25.4,23.1,29.92,East,91,0.0,0.0,91,0.00,,,0.00,Wunderground v.1.15,2013-01-04 05:36:00,
2013-01-03 23:41:00,25.3,23.0,29.92,East,91,0.0,0.0,91,0.00,,,0.00,Wunderground v.1.15,2013-01-04 05:41:00,
2013-01-03 23:46:00,25.1,22.8,29.92,East,90,0.0,0.0,91,0.00,,,0.00,Wunderground v.1.15,2013-01-04 05:46:00,
2013-01-03 23:51:00,25.0,22.7,29.92,East,90,0.0,0.0,91,0.00,,,0.00,Wunderground v.1.15,2013-01-04 05:51:00,
2013-01-03 23:56:00,25.0,22.7,29.92,East,90,0.0,1.0,91,0.00,,,0.00,Wunderground v.1.15,2013-01-04 05:56:00,